Time;durP1;ratioP1;P1;durP2;ratioP2;P2;SDS_P1;SDS_P2;PMS_P1;PMS_P2;Temp;Humidity;BMP_temperature;BMP_pressure;BME280_temperature;BME280_humidity;BME280_pressure;Samples;Min_cycle;Max_cycle;Signal;HPM_P1;HPM_P2
2021/05/11 00:01:05;;;;;;;1.20;0.80;;;;;;;19.70;54.88;100965.03;4778473;30;20031;-86
2021/05/11 00:03:31;;;;;;;0.95;0.60;;;;;;;19.67;55.10;100961.59;4794065;30;20497;-85
2021/05/11 00:05:59;;;;;;;1.35;0.65;;;;;;;19.68;55.37;100968.50;4794051;30;20078;-85
2021/05/11 00:08:28;;;;;;;3.10;0.50;;;;;;;19.68;55.24;100976.34;4792904;30;20035;-86
2021/05/11 00:10:53;;;;;;;0.90;0.50;;;;;;;19.66;55.28;100970.28;4792345;30;20046;-86
2021/05/11 00:13:19;;;;;;;1.23;0.60;;;;;;;19.68;55.18;100982.44;4792049;30;20031;-84
2021/05/11 00:15:44;;;;;;;1.48;0.75;;;;;;;19.67;55.18;100972.03;4776022;30;20349;-85
2021/05/11 00:18:18;;;;;;;1.23;0.70;;;;;;;19.68;55.02;100981.56;4790407;30;20396;-85
2021/05/11 00:20:43;;;;;;;;;;;;;;;19.67;55.19;100978.09;4789360;29;20031;-86
2021/05/11 00:23:09;;;;;;;2.05;0.70;;;;;;;19.67;55.18;100972.03;4771361;30;19993;-87
2021/05/11 00:25:34;;;;;;;1.52;0.65;;;;;;;19.65;55.23;100971.19;4755752;30;20120;-86
2021/05/11 00:28:00;;;;;;;1.35;0.60;;;;;;;19.65;55.11;100977.28;4741285;30;20462;-85
2021/05/11 00:30:26;;;;;;;1.30;0.70;;;;;;;19.64;55.22;100967.72;4741944;30;20036;-84
2021/05/11 00:32:51;;;;;;;1.48;0.80;;;;;;;19.66;54.91;100976.41;4741279;30;20035;-84
2021/05/11 00:35:17;;;;;;;1.25;0.65;;;;;;;19.64;55.00;100970.34;4771594;30;20032;-86
2021/05/11 00:37:45;;;;;;;1.08;0.60;;;;;;;19.67;55.00;100972.03;4743605;30;20028;-85
2021/05/11 00:40:12;;;;;;;1.33;0.70;;;;;;;19.65;54.93;100964.22;4764671;30;20042;-86
2021/05/11 00:42:38;;;;;;;1.70;0.75;;;;;;;19.66;54.99;100965.06;4754643;30;20062;-84
2021/05/11 00:45:07;;;;;;;2.33;0.70;;;;;;;19.64;54.80;100957.28;4787641;30;20839;-86
2021/05/11 00:47:32;;;;;;;0.85;0.60;;;;;;;19.63;55.09;100960.75;4753170;30;20043;-86
2021/05/11 00:49:58;;;;;;;1.23;0.70;;;;;;;19.63;55.16;100959.91;4744454;30;20028;-86
2021/05/11 00:52:24;;;;;;;1.10;0.73;;;;;;;19.63;55.18;100954.69;4756472;30;20565;-86
2021/05/11 00:54:50;;;;;;;3.25;0.70;;;;;;;19.63;55.11;100949.47;4742278;30;20036;-85
2021/05/11 00:57:16;;;;;;;0.73;0.50;;;;;;;19.63;55.03;100950.31;4756004;30;20052;-86
2021/05/11 00:59:42;;;;;;;2.35;0.80;;;;;;;19.63;55.10;100949.47;4755824;30;20043;-86
2021/05/11 01:02:09;;;;;;;1.17;0.60;;;;;;;19.61;54.95;100946.88;4755547;30;20042;-86
2021/05/11 01:04:36;;;;;;;1.23;0.60;;;;;;;19.62;54.95;100950.34;4755409;30;20054;-85
2021/05/11 01:07:02;;;;;;;1.25;0.50;;;;;;;19.64;55.08;100964.22;4755683;30;20036;-86
2021/05/11 01:09:31;;;;;;;0.90;0.50;;;;;;;19.63;55.14;100954.69;4772050;30;20055;-86
2021/05/11 01:11:57;;;;;;;1.38;0.70;;;;;;;19.62;54.84;100956.44;4741195;30;20504;-85
2021/05/11 01:14:27;;;;;;;1.67;0.68;;;;;;;19.62;55.09;100956.44;4741601;30;20084;-86
2021/05/11 01:16:56;;;;;;;1.85;0.70;;;;;;;19.63;55.02;100954.69;4756360;30;20039;-85
2021/05/11 01:24:50;;;;;;;1.15;0.50;;;;;;;19.60;55.02;100941.66;4771643;30;20090;-84
2021/05/11 01:54:26;;;;;;;1.35;0.60;;;;;;;19.60;54.85;100946.88;4774450;30;20051;-86
2021/05/11 02:25:04;;;;;;;1.10;0.70;;;;;;;19.57;54.73;100946.94;4761038;30;20521;-86
2021/05/11 02:27:30;;;;;;;1.20;0.80;;;;;;;19.54;54.87;100940.03;4771795;30;20043;-86
2021/05/11 02:29:55;;;;;;;1.77;0.80;;;;;;;19.53;54.77;100941.78;4771957;30;20044;-86
2021/05/11 02:32:21;;;;;;;1.83;0.73;;;;;;;19.53;54.80;100933.06;4773302;30;20028;-85
2021/05/11 02:34:46;;;;;;;2.05;0.80;;;;;;;19.55;55.10;100938.28;4757299;30;20093;-86
2021/05/11 02:37:14;;;;;;;0.73;0.50;;;;;;;19.53;54.83;100938.28;4787556;30;20119;-86
2021/05/11 02:39:40;;;;;;;1.95;0.85;;;;;;;19.51;54.82;100929.63;4757571;30;20036;-86
2021/05/11 02:42:05;;;;;;;1.77;0.88;;;;;;;19.51;54.87;100933.13;4757249;30;20123;-86
2021/05/11 02:44:38;;;;;;;1.15;0.77;;;;;;;19.52;54.74;100931.38;4786119;30;20028;-86
2021/05/11 02:47:07;;;;;;;1.23;0.63;;;;;;;19.50;54.68;100925.31;4787255;30;20122;-86
2021/05/11 02:49:32;;;;;;;1.20;0.60;;;;;;;19.50;54.72;100923.56;4756510;30;20043;-86
2021/05/11 02:51:58;;;;;;;0.90;0.60;;;;;;;19.50;54.83;100920.09;4757109;30;20399;-86
2021/05/11 02:54:23;;;;;;;2.33;0.90;;;;;;;19.49;54.82;100923.59;4757031;30;20119;-85
2021/05/11 02:56:49;;;;;;;1.05;0.55;;;;;;;19.48;54.99;100917.50;4772818;30;20039;-88
2021/05/11 02:59:14;;;;;;;1.20;0.70;;;;;;;19.49;54.94;100927.06;4776363;30;20036;-85
2021/05/11 03:01:40;;;;;;;1.17;0.60;;;;;;;19.50;55.01;100926.16;4770188;30;20099;-86
2021/05/11 03:04:05;;;;;;;1.75;0.70;;;;;;;19.49;54.71;100926.22;4790897;30;20035;-85
2021/05/11 03:06:30;;;;;;;1.70;0.70;;;;;;;19.47;54.67;100921.00;4788419;30;20032;-86
2021/05/11 03:08:56;;;;;;;1.58;0.73;;;;;;;19.47;54.76;100922.75;4760673;30;20069;-85
2021/05/11 03:11:21;;;;;;;1.25;0.63;;;;;;;19.50;54.44;100914.88;4757913;30;20085;-86
2021/05/11 03:13:47;;;;;;;1.95;0.70;;;;;;;19.47;54.92;100914.94;4742248;30;20372;-86
2021/05/11 03:16:12;;;;;;;1.95;0.80;;;;;;;19.47;54.82;100909.72;4757063;30;20043;-86
2021/05/11 03:18:38;;;;;;;1.23;0.70;;;;;;;19.46;54.92;100914.03;4773555;30;20036;-85
2021/05/11 03:21:04;;;;;;;1.73;0.80;;;;;;;19.47;54.73;100914.94;4757042;30;20028;-86
2021/05/11 03:23:29;;;;;;;2.08;0.65;;;;;;;19.46;54.82;100913.19;4756926;30;20430;-86
2021/05/11 03:25:55;;;;;;;1.05;0.68;;;;;;;19.46;54.84;100915.81;4786554;30;20059;-86
2021/05/11 03:28:20;;;;;;;2.13;0.80;;;;;;;19.45;54.90;100925.38;4786692;30;20055;-86
2021/05/11 03:30:46;;;;;;;1.15;0.70;;;;;;;19.42;54.84;100925.41;4786422;30;20107;-85
2021/05/11 03:33:11;;;;;;;0.68;0.50;;;;;;;19.45;54.68;100935.81;4772057;30;20036;-85
2021/05/11 03:35:37;;;;;;;0.95;0.50;;;;;;;19.46;54.93;100945.38;4760282;30;20028;-84
2021/05/11 03:38:04;;;;;;;1.23;0.75;;;;;;;19.44;54.79;100930.63;4773938;30;20046;-85
2021/05/11 03:40:32;;;;;;;0.68;0.45;;;;;;;19.46;54.69;100940.13;4771072;30;20479;-84
2021/05/11 03:43:12;;;;;;;1.05;0.57;;;;;;;19.43;54.66;100937.59;4757181;30;20046;-86
2021/05/11 03:45:44;;;;;;;0.80;0.55;;;;;;;19.45;54.66;100934.97;4787261;30;20075;-85
2021/05/11 03:48:10;;;;;;;1.10;0.65;;;;;;;19.43;54.77;100934.97;4743680;30;20134;-86
2021/05/11 03:50:35;;;;;;;1.40;0.60;;;;;;;19.43;54.65;100928.91;4772081;30;20114;-85
2021/05/11 03:53:01;;;;;;;1.15;0.60;;;;;;;19.44;54.80;100931.47;4757851;30;20036;-85
2021/05/11 03:55:27;;;;;;;0.88;0.60;;;;;;;19.43;54.63;100927.16;4757338;30;20126;-85
2021/05/11 03:57:52;;;;;;;0.68;0.50;;;;;;;19.43;54.66;100932.38;4758332;30;20532;-85
2021/05/11 04:00:18;;;;;;;1.27;0.60;;;;;;;19.42;54.64;100943.69;4759484;30;20028;-87
2021/05/11 04:02:44;;;;;;;0.98;0.60;;;;;;;19.43;54.73;100944.56;4787248;30;20054;-85
2021/05/11 04:05:10;;;;;;;1.02;0.60;;;;;;;19.45;54.77;100945.41;4757519;30;20040;-86
2021/05/11 04:07:37;;;;;;;0.80;0.50;;;;;;;19.42;54.77;100948.03;4771321;30;20039;-85
2021/05/11 04:18:53;;;;;;;1.27;0.65;;;;;;;19.41;54.56;100957.63;4782334;30;20109;-84
2021/05/11 04:21:20;;;;;;;1.02;0.57;;;;;;;19.44;54.78;100962.78;4760433;30;20028;-86
2021/05/11 04:23:46;;;;;;;1.67;0.60;;;;;;;19.42;54.64;100967.16;4745170;30;20114;-86
2021/05/11 04:26:13;;;;;;;1.10;0.60;;;;;;;19.45;54.71;100968.91;4765038;30;20407;-85
2021/05/11 04:28:39;;;;;;;1.08;0.50;;;;;;;19.47;54.49;100965.38;4768943;30;20059;-85
2021/05/11 04:31:06;;;;;;;0.70;0.50;;;;;;;19.46;54.29;100962.78;4749894;30;20204;-86
2021/05/11 04:33:32;;;;;;;1.08;0.60;;;;;;;19.45;54.31;100961.06;4747954;30;20492;-86
2021/05/11 04:35:57;;;;;;;0.90;0.60;;;;;;;19.45;54.41;100961.91;4744730;30;20039;-85
2021/05/11 04:38:23;;;;;;;1.33;0.80;;;;;;;19.46;54.52;100961.03;4758290;30;20472;-87
2021/05/11 04:40:49;;;;;;;1.08;0.60;;;;;;;19.45;54.48;100961.91;4744237;30;20028;-86
2021/05/11 04:43:15;;;;;;;0.98;0.50;;;;;;;19.47;54.29;100959.31;4756308;30;20048;-85
2021/05/11 04:45:41;;;;;;;1.00;0.60;;;;;;;19.48;54.34;100964.47;4757016;30;20527;-85
2021/05/11 04:48:07;;;;;;;1.38;0.60;;;;;;;19.48;54.18;100951.41;4756638;30;20036;-86
2021/05/11 04:50:33;;;;;;;1.35;0.50;;;;;;;19.48;54.23;100938.38;4741544;30;20126;-87
2021/05/11 04:52:58;;;;;;;1.23;0.50;;;;;;;19.53;54.30;100954.84;4741979;30;20068;-86
2021/05/11 04:55:24;;;;;;;1.10;0.60;;;;;;;19.53;54.16;100956.56;4771444;30;20047;-86
2021/05/11 04:57:50;;;;;;;1.00;0.60;;;;;;;19.56;54.40;100955.69;4755253;30;20563;-87
2021/05/11 05:00:16;;;;;;;0.77;0.50;;;;;;;19.54;54.34;100958.31;4740861;30;20146;-88
2021/05/11 05:02:45;;;;;;;1.20;0.55;;;;;;;19.56;54.05;100951.31;4755507;30;20028;-86
2021/05/11 05:05:11;;;;;;;0.70;0.57;;;;;;;19.58;54.20;100954.75;4755386;30;20043;-86
2021/05/11 05:07:37;;;;;;;1.05;0.60;;;;;;;19.60;53.80;100965.16;4760400;30;20028;-87
2021/05/11 05:10:04;;;;;;;2.60;1.10;;;;;;;19.67;54.20;100964.19;4761441;30;20028;-88
2021/05/11 05:12:30;;;;;;;2.90;1.15;;;;;;;19.68;53.87;100966.75;4788111;30;20097;-88
2021/05/11 05:14:55;;;;;;;4.13;1.50;;;;;;;19.64;54.08;100965.13;4793891;30;20051;-87
2021/05/11 05:17:21;;;;;;;4.57;1.77;;;;;;;19.76;53.73;100971.06;4795535;30;20038;-86
2021/05/11 05:19:46;;;;;;;10.15;1.80;;;;;;;19.78;53.49;100974.50;4793780;30;20028;-88
2021/05/11 05:22:12;;;;;;;6.60;2.20;;;;;;;19.78;53.13;100974.50;4778892;30;20031;-87
2021/05/11 05:24:57;;;;;;;9.48;2.45;;;;;;;19.81;53.23;100980.50;4778720;30;20042;-88
2021/05/11 05:27:25;;;;;;;9.88;2.63;;;;;;;19.83;53.32;100972.66;4781105;30;20121;-88
2021/05/11 05:29:51;;;;;;;13.38;2.85;;;;;;;19.88;53.31;100978.66;4793468;30;20100;-91
2021/05/11 05:32:17;;;;;;;9.82;2.70;;;;;;;19.91;53.14;100979.47;4778690;30;20055;-87
2021/05/11 05:34:42;;;;;;;5.80;2.50;;;;;;;19.91;53.19;100979.47;4794205;30;20052;-88
2021/05/11 05:37:09;;;;;;;12.00;2.55;;;;;;;19.93;53.22;100974.25;4794626;29;20493;-87
2021/05/11 05:39:41;;;;;;;8.20;2.47;;;;;;;19.95;53.30;100975.06;4793419;30;20031;-90
2021/05/11 05:42:07;;;;;;;10.50;2.60;;;;;;;19.97;52.83;100960.25;4779327;30;20039;-88
2021/05/11 05:44:32;;;;;;;10.25;2.67;;;;;;;20.04;52.95;100964.47;4763727;30;20058;-89
2021/05/11 05:46:58;;;;;;;7.82;2.85;;;;;;;20.07;52.80;100961.78;4794815;29;20055;-88
2021/05/11 05:49:27;;;;;;;5.60;2.63;;;;;;;20.12;52.65;100964.31;4778450;30;20138;-90
2021/05/11 05:51:59;;;;;;;8.43;2.50;;;;;;;20.33;52.10;100961.31;4779068;30;20357;-89
2021/05/11 05:54:25;;;;;;;6.05;2.53;;;;;;;20.71;51.04;100956.25;4779272;30;20134;-90
2021/05/11 05:56:50;;;;;;;10.23;2.55;;;;;;;20.85;51.10;100955.97;4779751;30;20055;-86
2021/05/11 05:59:16;;;;;;;5.20;2.60;;;;;;;20.91;50.97;100961.06;4779243;30;20114;-86
2021/05/11 06:01:41;;;;;;;6.78;2.65;;;;;;;21.31;49.65;100955.78;4780881;30;20402;-86
2021/05/11 06:04:14;;;;;;;8.32;2.90;;;;;;;21.41;49.69;100958.22;4795936;30;20118;-83
2021/05/11 06:06:42;;;;;;;8.73;2.53;;;;;;;;;;4796094;30;20023;-82
2021/05/11 06:09:15;;;;;;;6.00;2.47;;;;;;;21.17;49.79;100955.25;4798934;30;20170;-84
2021/05/11 06:11:47;;;;;;;;;;;;;;;21.46;49.33;100958.97;4791928;29;20054;-85
2021/05/11 06:17:13;;;;;;;7.28;2.72;;;;;;;22.21;47.39;100953.59;4779250;30;20039;-84
2021/05/11 06:19:40;;;;;;;10.18;2.63;;;;;;;22.27;47.11;100946.44;4767169;30;20099;-84
2021/05/11 06:22:05;;;;;;;5.25;2.45;;;;;;;22.68;45.96;100954.91;4746224;30;20119;-84
2021/05/11 06:24:31;;;;;;;6.88;2.90;;;;;;;22.99;45.01;100954.00;4770677;30;20124;-84
2021/05/11 06:26:57;;;;;;;9.82;2.90;;;;;;;23.37;44.61;100946.75;4763949;30;20043;-84
2021/05/11 06:29:24;;;;;;;4.82;2.42;;;;;;;23.33;44.09;100942.50;4762681;30;20040;-84
2021/05/11 06:31:50;;;;;;;4.80;2.55;;;;;;;23.22;44.54;100939.34;4746005;30;20056;-82
2021/05/11 06:34:15;;;;;;;5.13;2.45;;;;;;;23.22;44.86;100944.59;4745459;30;20043;-86
2021/05/11 06:36:40;;;;;;;5.95;2.42;;;;;;;23.40;44.29;100942.22;4759165;30;20533;-87
2021/05/11 06:39:10;;;;;;;4.85;2.60;;;;;;;23.62;43.32;100933.66;4775568;30;20115;-88
2021/05/11 06:41:37;;;;;;;4.82;2.47;;;;;;;23.85;42.71;100929.44;4761117;30;20032;-84
2021/05/11 06:44:07;;;;;;;5.18;2.40;;;;;;;23.88;43.04;100930.16;4761335;30;20032;-86
2021/05/11 06:54:13;;;;;;;4.05;2.25;;;;;;;23.96;42.40;100935.19;4783895;30;20031;-86
2021/05/11 07:00:59;;;;;;;;;;;;;;;;;;;;;
2021/05/11 07:07:10;;;;;;;4.68;2.17;;;;;;;23.95;42.77;100936.94;4729930;30;20048;-81
2021/05/11 07:10:30;;;;;;;5.10;2.25;;;;;;;23.98;43.08;100941.25;4745143;30;20063;-83
2021/05/11 07:21:30;;;;;;;3.60;2.05;;;;;;;24.25;42.52;100934.13;4775055;30;20062;-82
2021/05/11 07:24:17;;;;;;;4.50;1.73;;;;;;;24.24;42.17;100932.44;4775401;30;20051;-83
2021/05/11 07:39:09;;;;;;;;;;;;;;;;;;;;;
2021/05/11 07:41:57;;;;;;;3.05;1.77;;;;;;;25.02;40.60;100918.09;4771362;30;20433;-82
2021/05/11 07:45:07;;;;;;;3.25;1.85;;;;;;;25.57;39.61;100923.81;4730345;30;20070;-83
2021/05/11 07:48:10;;;;;;;2.45;1.55;;;;;;;26.81;36.72;100920.13;4759953;30;20117;-83
2021/05/11 08:04:57;;;;;;;4.55;1.70;;;;;;;24.21;42.28;100915.00;4719853;30;20041;-83
2021/05/11 08:15:40;;;;;;;2.22;1.23;;;;;;;22.29;47.74;100926.28;4761961;30;20123;-84
2021/05/11 08:28:37;;;;;;;3.17;1.50;;;;;;;23.51;44.83;100920.00;4761413;30;20518;-84
2021/05/11 08:31:03;;;;;;;2.75;1.40;;;;;;;23.76;43.86;100904.34;4745011;30;20040;-85
2021/05/11 08:33:28;;;;;;;2.58;1.50;;;;;;;23.01;45.40;100912.84;4757438;30;20032;-85
2021/05/11 08:35:54;;;;;;;3.53;1.27;;;;;;;22.93;46.14;100901.69;4757651;30;20119;-84
2021/05/11 08:38:19;;;;;;;2.50;1.25;;;;;;;22.41;47.28;100911.09;4741638;30;20131;-86
2021/05/11 08:40:45;;;;;;;2.10;1.20;;;;;;;22.30;47.87;100914.06;4758698;30;20059;-85
2021/05/11 08:43:25;;;;;;;4.80;1.65;;;;;;;21.95;48.80;100908.00;4742992;30;20054;-88
2021/05/11 08:45:51;;;;;;;6.07;1.23;;;;;;;21.50;49.84;100919.59;4759073;30;20152;-87
2021/05/11 08:48:17;;;;;;;3.42;1.50;;;;;;;21.30;50.65;100914.81;4743495;30;20036;-87
2021/05/11 08:50:46;;;;;;;2.20;1.30;;;;;;;21.21;51.08;100922.00;4773535;30;20088;-90
2021/05/11 09:23:33;;;;;;;2.78;1.33;;;;;;;21.07;51.69;100931.03;4761422;30;20052;-89
2021/05/11 09:23:54;;;;;;;2.97;1.00;;;;;;;21.24;50.91;100928.03;4743726;30;20048;-88
2021/05/11 09:26:34;;;;;;;2.83;1.23;;;;;;;21.21;51.13;100938.59;4732084;30;20070;-87
2021/05/11 09:29:05;;;;;;;1.85;1.08;;;;;;;21.13;51.48;100938.75;4759425;30;20030;-89
2021/05/11 09:31:54;;;;;;;2.25;1.08;;;;;;;21.06;51.73;100936.31;4747256;30;20036;-87
2021/05/11 09:34:38;;;;;;;2.00;1.17;;;;;;;21.02;51.70;100938.13;4761014;30;20399;-90
2021/05/11 11:04:55;;;;;;;1.42;0.85;;;;;;;20.87;52.60;100921.03;4735608;30;20040;-88
2021/05/11 11:07:40;;;;;;;1.77;1.00;;;;;;;20.82;52.51;100908.94;4707199;30;20129;-89
2021/05/11 11:10:10;;;;;;;1.80;1.05;;;;;;;20.88;52.51;100911.41;4771635;30;20040;-88
2021/05/11 11:12:40;;;;;;;1.77;0.93;;;;;;;20.89;52.29;100908.78;4758564;30;20038;-88
2021/05/11 11:15:19;;;;;;;2.00;1.00;;;;;;;20.93;52.28;100907.81;4756913;30;20027;-88
2021/05/11 11:18:07;;;;;;;2.38;1.05;;;;;;;20.98;52.18;100899.84;4757575;30;20476;-87
2021/05/11 11:20:44;;;;;;;2.55;1.20;;;;;;;21.03;51.96;100895.38;4757823;30;20048;-86
2021/05/11 11:26:43;;;;;;;1.30;0.90;;;;;;;21.04;51.95;100891.88;4774307;30;20047;-88
2021/05/11 11:29:33;;;;;;;1.58;1.00;;;;;;;21.09;51.79;100870.84;4761212;30;20040;-87
2021/05/11 11:39:00;;;;;;;1.70;1.20;;;;;;;21.10;51.64;100868.19;4741526;30;20059;-87
2021/05/11 11:41:54;;;;;;;1.77;1.08;;;;;;;21.05;51.92;100864.81;4759328;30;20054;-86
2021/05/11 11:44:44;;;;;;;1.83;1.13;;;;;;;21.04;52.20;100857.88;4786053;30;20047;-88
2021/05/11 11:47:23;;;;;;;2.30;1.10;;;;;;;21.02;52.02;100850.94;4748934;30;20051;-87
2021/05/11 11:50:04;;;;;;;1.60;1.15;;;;;;;21.04;52.06;100850.00;4760466;30;20448;-87
2021/05/11 11:52:48;;;;;;;;;;;;;;;;;;;;;
2021/05/11 12:01:43;;;;;;;1.17;1.00;;;;;;;21.02;52.08;100867.50;4754596;30;20048;-88
2021/05/11 12:04:51;;;;;;;1.63;1.00;;;;;;;20.95;52.53;100858.09;4744545;30;20127;-89
2021/05/11 12:08:03;;;;;;;;;;;;;;;;;;;;;
2021/05/11 12:10:37;;;;;;;1.42;0.95;;;;;;;20.85;52.73;100888.81;4772682;30;20071;-88
2021/05/11 12:13:19;;;;;;;1.77;1.10;;;;;;;20.82;52.80;100895.84;4757760;30;20036;-88
2021/05/11 12:16:05;;;;;;;2.17;1.20;;;;;;;20.82;52.73;100898.47;4758936;30;20028;-88
2021/05/11 12:19:05;;;;;;;1.80;1.10;;;;;;;20.77;52.89;100901.19;4764882;30;20317;-88
2021/05/11 12:21:33;;;;;;;1.38;0.93;;;;;;;20.74;53.03;100903.88;4758912;30;20032;-88
2021/05/11 12:24:48;;;;;;;1.88;0.98;;;;;;;20.70;53.31;100904.84;4759335;30;20032;-88
2021/05/11 12:27:24;;;;;;;1.70;1.10;;;;;;;20.72;53.21;100914.38;4769127;30;20399;-88
2021/05/11 12:30:54;;;;;;;1.90;1.15;;;;;;;20.68;53.13;100917.94;4775571;30;20066;-89
2021/05/11 12:33:35;;;;;;;2.72;1.08;;;;;;;20.68;53.25;100915.31;4719148;30;20112;-88
2021/05/11 12:36:23;;;;;;;1.92;1.20;;;;;;;20.71;53.16;100923.13;4777685;30;20031;-88
2021/05/11 12:39:09;;;;;;;1.80;1.02;;;;;;;20.71;52.95;100911.81;4763543;30;20107;-88
2021/05/11 12:41:48;;;;;;;2.33;1.00;;;;;;;20.69;53.25;100905.75;4779802;30;20119;-88
2021/05/11 12:45:01;;;;;;;2.15;1.20;;;;;;;20.70;52.97;100910.06;4751321;30;20044;-86
2021/05/11 12:47:27;;;;;;;1.33;0.93;;;;;;;20.71;53.38;100915.28;4734220;30;20043;-90
2021/05/11 12:50:32;;;;;;;2.13;1.13;;;;;;;20.72;53.14;100921.34;4764309;30;20049;-89
2021/05/11 13:22:26;;;;;;;1.10;0.90;;;;;;;20.65;53.22;100954.63;4685479;30;20056;-90
2021/05/11 13:25:48;;;;;;;2.00;1.17;;;;;;;20.65;53.34;100952.00;4708827;30;20068;-88
2021/05/11 13:31:36;;;;;;;1.60;1.00;;;;;;;20.63;53.14;100961.63;4736244;30;20056;-87
2021/05/11 13:34:48;;;;;;;2.50;1.27;;;;;;;20.64;53.35;100986.03;4725618;30;20099;-88
2021/05/11 13:38:03;;;;;;;1.58;1.08;;;;;;;20.64;52.99;100986.03;4741151;30;20589;-87
2021/05/11 13:44:56;;;;;;;;;;;;;;;;;;;;;
2021/05/11 13:47:54;;;;;;;;;;;;;;;;;;;;;
2021/05/11 13:54:46;;;;;;;;;;;;;;;;;;;;;
2021/05/11 14:05:24;;;;;;;;;;;;;;;;;;;;;
2021/05/11 14:14:59;;;;;;;;;;;;;;;;;;;;;
2021/05/11 14:21:34;;;;;;;;;;;;;;;;;;;;;
2021/05/11 14:37:33;;;;;;;1.30;0.85;;;;;;;20.48;53.08;100943.59;4615603;30;20042;-89
2021/05/11 14:40:08;;;;;;;1.40;1.00;;;;;;;20.46;53.13;100937.56;4670831;30;20154;-88
2021/05/11 14:42:44;;;;;;;1.92;0.80;;;;;;;20.46;53.00;100924.47;4740929;30;20126;-89
2021/05/11 14:46:02;;;;;;;1.20;0.90;;;;;;;20.49;53.02;100927.03;4755937;30;20424;-89
2021/05/11 14:48:15;;;;;;;1.77;0.90;;;;;;;20.47;53.17;100921.84;4753708;30;20055;-89
2021/05/11 14:53:51;;;;;;;1.13;0.73;;;;;;;20.47;52.99;100924.47;4742824;30;20051;-88
2021/05/11 14:56:29;;;;;;;0.80;0.80;;;;;;;20.48;52.97;100933.16;4754338;30;20055;-88
2021/05/11 14:59:13;;;;;;;1.38;0.90;;;;;;;20.47;53.17;100932.31;4753983;30;20032;-88
2021/05/11 15:02:01;;;;;;;1.27;0.82;;;;;;;20.46;53.15;100932.31;4754005;30;20028;-88
2021/05/11 15:04:49;;;;;;;1.88;1.20;;;;;;;20.47;52.96;100939.25;4718696;30;20520;-89
2021/05/11 15:07:31;;;;;;;1.77;0.88;;;;;;;20.47;53.12;100940.13;4728574;30;20051;-89
2021/05/11 15:10:28;;;;;;;1.52;0.82;;;;;;;20.47;53.15;100934.91;4753591;30;20024;-89
2021/05/11 15:12:59;;;;;;;1.38;0.90;;;;;;;20.49;53.00;100940.97;4722424;30;20041;-88
2021/05/11 15:15:35;;;;;;;1.38;0.82;;;;;;;20.48;53.02;100941.00;4739179;30;20101;-89
2021/05/11 15:18:09;;;;;;;1.65;0.90;;;;;;;20.50;53.11;100941.81;4739143;30;20485;-89
2021/05/11 15:20:35;;;;;;;1.33;0.88;;;;;;;20.50;52.94;100933.97;4753819;30;20032;-89
2021/05/11 15:23:23;;;;;;;1.33;0.85;;;;;;;20.53;52.92;100937.41;4754084;30;20034;-88
2021/05/11 15:26:01;;;;;;;;;;;;;;;;;;;;;
2021/05/11 15:28:36;;;;;;;1.25;0.80;;;;;;;20.53;52.90;100932.19;4740961;30;20044;-88
2021/05/11 15:31:16;;;;;;;1.20;0.80;;;;;;;20.55;53.05;100939.97;4754692;30;20066;-88
2021/05/11 15:34:05;;;;;;;1.27;0.82;;;;;;;20.56;53.05;100944.31;4725134;30;20044;-88
2021/05/11 15:36:35;;;;;;;0.70;0.57;;;;;;;20.55;52.89;100937.34;4681809;30;20078;-88
2021/05/11 15:39:04;;;;;;;1.00;0.80;;;;;;;20.58;52.96;100942.56;4739503;30;20389;-88
2021/05/11 15:41:30;;;;;;;1.70;0.73;;;;;;;20.56;52.95;100952.16;4743070;30;20079;-89
2021/05/11 15:43:55;;;;;;;1.98;0.90;;;;;;;20.59;53.02;100957.34;4756659;30;20044;-88
2021/05/11 15:46:38;;;;;;;1.52;1.00;;;;;;;20.60;52.97;100947.75;4781700;24;20052;-87
2021/05/11 15:49:34;;;;;;;0.95;0.70;;;;;;;20.60;52.99;100940.78;4754535;30;20067;-88
2021/05/11 15:52:10;;;;;;;1.67;0.90;;;;;;;20.60;53.16;100953.88;4743486;30;20084;-87
2021/05/11 15:54:47;;;;;;;1.90;0.77;;;;;;;20.62;53.18;100959.03;4770759;30;20036;-86
2021/05/11 15:57:16;;;;;;;1.30;0.80;;;;;;;20.61;53.01;100952.97;4761716;30;20040;-90
2021/05/11 15:59:47;;;;;;;1.63;0.73;;;;;;;20.62;53.03;100949.47;4764949;30;20043;-86
2021/05/11 16:02:23;;;;;;;1.63;0.88;;;;;;;20.64;52.96;100946.78;4784090;30;20043;-88
2021/05/11 16:04:51;;;;;;;5.75;1.08;;;;;;;20.64;53.13;100945.03;4779972;30;20131;-88
2021/05/11 16:07:24;;;;;;;3.92;0.82;;;;;;;20.63;53.06;100945.94;4774900;30;20034;-87
2021/05/11 16:10:10;;;;;;;4.55;1.08;;;;;;;20.62;53.18;100951.19;4772938;30;20021;-88
2021/05/11 16:12:38;;;;;;;3.17;0.80;;;;;;;20.62;53.28;100949.47;4772013;30;20369;-88
2021/05/11 16:15:15;;;;;;;3.72;0.70;;;;;;;20.60;53.22;100952.97;4756906;30;20039;-88
2021/05/11 16:17:41;;;;;;;4.57;0.90;;;;;;;20.59;53.19;100952.13;4769985;30;20024;-87
2021/05/11 16:20:11;;;;;;;3.33;0.88;;;;;;;20.59;53.18;100946.03;4769882;30;20039;-87
2021/05/11 16:22:49;;;;;;;1.98;0.98;;;;;;;20.57;53.25;100948.69;4770145;30;20036;-88
2021/05/11 16:25:32;;;;;;;2.33;1.05;;;;;;;20.55;53.37;100943.44;4756529;30;20044;-88
2021/05/11 16:28:07;;;;;;;1.45;0.80;;;;;;;20.54;53.46;100949.56;4769703;30;20052;-88
2021/05/11 16:30:44;;;;;;;5.03;0.93;;;;;;;20.54;53.47;100946.97;4769439;30;20039;-88
2021/05/11 16:33:52;;;;;;;2.40;0.80;;;;;;;20.54;53.47;100940.88;4754274;30;20040;-89
2021/05/11 16:36:23;;;;;;;3.55;0.88;;;;;;;20.54;53.54;100952.19;4749061;30;20046;-88
2021/05/11 16:39:00;;;;;;;1.73;0.90;;;;;;;20.50;53.57;100950.53;4754254;30;20036;-87
2021/05/11 16:42:03;;;;;;;1.80;0.88;;;;;;;20.48;53.63;100943.59;4768291;30;20060;-86
2021/05/11 16:44:39;;;;;;;2.63;0.80;;;;;;;20.48;53.64;100946.22;4754261;30;20092;-86
2021/05/11 16:47:15;;;;;;;7.70;1.10;;;;;;;20.48;53.69;100941.00;4765633;30;20080;-86
2021/05/11 16:49:49;;;;;;;1.27;0.90;;;;;;;20.46;53.82;100937.56;4739642;30;20048;-87
2021/05/11 16:52:24;;;;;;;;;;;;;;;;;;;;;
2021/05/11 16:55:34;;;;;;;2.00;0.90;;;;;;;20.43;53.78;100943.72;4753811;30;20051;-87
2021/05/11 16:58:01;;;;;;;1.75;0.90;;;;;;;20.44;53.89;100945.41;4753626;30;20097;-87
2021/05/11 17:00:34;;;;;;;1.25;0.73;;;;;;;20.43;53.88;100955.91;4769511;30;20048;-87
2021/05/11 17:03:47;;;;;;;2.00;0.90;;;;;;;20.41;53.79;100949.84;4754439;30;20028;-87
2021/05/11 17:06:15;;;;;;;1.90;0.75;;;;;;;20.41;53.91;100961.16;4738945;30;20048;-87
2021/05/11 17:08:45;;;;;;;2.03;0.90;;;;;;;20.40;53.92;100954.19;4767652;30;20032;-86
2021/05/11 17:11:27;;;;;;;3.03;1.00;;;;;;;20.39;54.12;100946.41;4753647;30;20067;-88
2021/05/11 17:18:04;;;;;;;2.10;0.77;;;;;;;20.40;54.05;100948.97;4699879;30;20479;-90
2021/05/11 17:21:40;;;;;;;;;;;;;;;;;;;;;
2021/05/11 17:24:23;;;;;;;0.90;0.80;;;;;;;20.40;54.00;100972.50;4697625;30;20052;-88
2021/05/11 17:28:00;;;;;;;;;;;;;;;;;;;;;
2021/05/11 17:44:44;;;;;;;;;;;;;;;;;;;;;
2021/05/11 17:48:01;;;;;;;24.60;6.90;;;;;;;20.43;54.70;100989.91;4754812;30;20048;-88
2021/05/11 17:51:21;;;;;;;;;;;;;;;;;;;;;
2021/05/11 18:04:02;;;;;;;;;;;;;;;;;;;;;
2021/05/11 18:10:43;;;;;;;19.27;6.50;;;;;;;20.39;55.22;100998.69;4741700;30;20508;-89
2021/05/11 18:20:35;;;;;;;24.58;7.15;;;;;;;20.34;55.22;101017.06;4701782;30;20067;-89
2021/05/11 18:23:16;;;;;;;;;;;;;;;;;;;;;
2021/05/11 18:26:29;;;;;;;21.60;7.70;;;;;;;20.33;55.56;101024.03;4756495;30;20756;-87
2021/05/11 18:32:25;;;;;;;;;;;;;;;;;;;;;
2021/05/11 18:35:13;;;;;;;15.52;6.80;;;;;;;20.30;55.61;101016.25;4776256;29;20060;-88
2021/05/11 18:38:04;;;;;;;19.20;6.95;;;;;;;20.30;55.59;101025.84;4761393;30;20392;-86
2021/05/11 18:44:06;;;;;;;18.80;6.70;;;;;;;20.31;55.57;101051.94;4754576;30;20043;-88
2021/05/11 18:46:48;;;;;;;14.90;5.93;;;;;;;20.29;55.57;101048.47;4740651;30;20052;-88
2021/05/11 18:49:49;;;;;;;14.45;6.15;;;;;;;20.28;55.77;101052.00;4754414;30;20048;-88
2021/05/11 18:52:51;;;;;;;;;;;;;;;;;;;;;
2021/05/11 18:55:51;;;;;;;16.45;5.90;;;;;;;20.27;55.85;101060.75;4755172;30;20035;-88
2021/05/11 18:58:25;;;;;;;14.45;5.78;;;;;;;20.26;55.67;101059.00;4755871;30;20043;-87
2021/05/11 19:01:21;;;;;;;;;;;;;;;;;;;;;
2021/05/11 19:04:20;;;;;;;13.95;5.45;;;;;;;20.24;55.73;101050.31;4755276;30;20036;-88
2021/05/11 19:06:49;;;;;;;15.70;6.10;;;;;;;20.27;55.78;101058.13;4756594;30;20044;-87